createdAt,value
2023-04-01T00:02:02.751Z,1.42
2023-04-01T00:07:24.631Z,1.85
2023-04-01T00:12:52.695Z,1.60
2023-04-01T00:18:15.039Z,1.20
2023-04-01T00:23:37.442Z,1.33
2023-04-01T00:29:00.225Z,1.20
2023-04-01T00:34:22.385Z,2.30
2023-04-01T00:39:44.190Z,1.88
2023-04-01T00:45:45.839Z,1.52
2023-04-01T00:51:11.175Z,1.80
2023-04-01T00:56:39.478Z,2.08
2023-04-01T01:02:03.398Z,1.77
2023-04-01T01:07:52.646Z,1.60
2023-04-01T01:13:27.398Z,1.35
2023-04-01T01:19:07.485Z,1.67
2023-04-01T01:24:50.786Z,1.70
2023-04-01T01:30:37.242Z,1.15
2023-04-01T01:36:03.335Z,1.23
2023-04-01T01:41:27.910Z,1.70
2023-04-01T01:46:51.168Z,1.90
2023-04-01T01:52:14.322Z,0.88
2023-04-01T01:57:40.518Z,1.27
2023-04-01T02:03:02.705Z,1.10
2023-04-01T02:09:04.709Z,1.10
2023-04-01T02:14:32.367Z,1.23
2023-04-01T02:20:28.965Z,0.80
2023-04-01T02:25:52.270Z,1.00
2023-04-01T02:31:16.237Z,1.20
2023-04-01T02:36:39.313Z,0.90
2023-04-01T02:42:01.570Z,1.17
2023-04-01T02:47:23.394Z,0.90
2023-04-01T02:52:45.238Z,0.85
2023-04-01T02:58:07.383Z,0.80
2023-04-01T03:03:29.181Z,1.00
2023-04-01T03:08:51.280Z,0.90
2023-04-01T03:14:13.381Z,1.00
2023-04-01T03:19:35.393Z,0.70
2023-04-01T03:24:57.131Z,0.57
2023-04-01T03:30:19.094Z,0.70
2023-04-01T03:35:41.114Z,0.90
2023-04-01T03:41:03.074Z,0.60
2023-04-01T03:46:24.974Z,0.57
2023-04-01T03:51:46.868Z,0.90
2023-04-01T03:57:08.724Z,0.80
2023-04-01T04:02:30.730Z,0.70
2023-04-01T04:07:53.547Z,0.40
2023-04-01T04:13:15.789Z,0.88
2023-04-01T04:18:38.347Z,0.70
2023-04-01T04:24:01.585Z,0.50
2023-04-01T04:29:24.320Z,0.82
2023-04-01T04:34:46.109Z,0.85
2023-04-01T04:40:08.896Z,0.60
2023-04-01T04:45:31.642Z,0.75
2023-04-01T04:50:53.704Z,0.50
2023-04-01T04:56:20.668Z,0.52
2023-04-01T05:01:42.550Z,0.40
2023-04-01T05:07:04.493Z,0.52
2023-04-01T05:12:26.404Z,0.40
2023-04-01T05:17:48.621Z,0.30
2023-04-01T05:23:10.532Z,0.55
2023-04-01T05:28:32.366Z,0.50
2023-04-01T05:33:55.472Z,0.43
2023-04-01T05:39:17.319Z,0.60
2023-04-01T05:44:39.094Z,0.68
2023-04-01T05:50:01.370Z,0.70
2023-04-01T05:55:23.225Z,0.88
2023-04-01T06:00:46.486Z,0.88
2023-04-01T06:06:26.589Z,0.63
2023-04-01T06:12:07.260Z,0.70
2023-04-01T06:18:07.937Z,0.50
2023-04-01T06:24:04.176Z,0.90
2023-04-01T06:29:46.214Z,0.70
2023-04-01T06:35:22.149Z,0.50
2023-04-01T06:41:04.071Z,0.80
2023-04-01T06:46:55.179Z,0.77
2023-04-01T06:52:53.118Z,0.75
2023-04-01T06:58:43.675Z,0.70
2023-04-01T07:04:34.356Z,0.73
2023-04-01T07:10:01.081Z,0.60
2023-04-01T07:15:38.539Z,0.60
2023-04-01T07:21:02.202Z,0.45
2023-04-01T07:26:26.087Z,0.43
2023-04-01T07:31:53.703Z,0.60
2023-04-01T07:37:29.595Z,0.85
2023-04-01T07:43:00.314Z,0.63
2023-04-01T07:48:36.746Z,0.55
2023-04-01T07:54:04.274Z,0.75
2023-04-01T07:59:38.766Z,0.95
2023-04-01T08:05:29.679Z,0.35
2023-04-01T08:10:57.749Z,0.32
2023-04-01T08:16:34.771Z,0.60
2023-04-01T08:22:00.007Z,0.90
2023-04-01T08:27:24.723Z,0.70
2023-04-01T08:32:57.219Z,0.60
2023-04-01T08:38:37.389Z,1.05
2023-04-01T08:44:11.921Z,0.52
2023-04-01T08:49:45.720Z,1.00
2023-04-01T08:55:52.441Z,0.88
2023-04-01T09:01:36.137Z,1.15
2023-04-01T09:07:33.190Z,0.90
2023-04-01T09:13:43.330Z,0.80
2023-04-01T09:19:38.512Z,0.75
2023-04-01T09:25:16.639Z,0.70
2023-04-01T09:31:13.478Z,0.90
2023-04-01T09:36:35.750Z,0.90
2023-04-01T09:42:16.377Z,0.95
2023-04-01T09:47:51.422Z,0.70
2023-04-01T09:53:18.126Z,0.60
2023-04-01T09:59:03.288Z,1.13
2023-04-01T10:04:37.219Z,1.00
2023-04-01T10:10:17.426Z,1.10
2023-04-01T10:16:03.532Z,1.23
2023-04-01T10:21:34.216Z,1.30
2023-04-01T10:27:01.746Z,0.98
2023-04-01T10:32:58.015Z,1.33
2023-04-01T10:38:46.972Z,0.93
2023-04-01T10:44:38.246Z,1.02
2023-04-01T10:50:15.232Z,1.00
2023-04-01T10:55:46.725Z,1.13
2023-04-01T11:01:14.504Z,1.20
2023-04-01T11:07:10.274Z,1.23
2023-04-01T11:12:47.240Z,0.98
2023-04-01T11:18:36.426Z,1.15
2023-04-01T11:24:08.615Z,1.00
2023-04-01T11:29:49.781Z,1.17
2023-04-01T11:35:46.763Z,0.80
2023-04-01T11:41:26.707Z,1.20
2023-04-01T11:47:01.995Z,0.85
2023-04-01T11:52:53.289Z,0.90
2023-04-01T11:58:30.342Z,1.45
2023-04-01T12:04:00.337Z,1.33
2023-04-01T12:09:43.346Z,2.10
2023-04-01T12:15:32.579Z,1.45
2023-04-01T12:21:08.293Z,1.65
2023-04-01T12:26:42.198Z,1.15
2023-04-01T12:32:19.013Z,1.80
2023-04-01T12:37:52.358Z,1.88
2023-04-01T12:43:33.361Z,1.90
2023-04-01T12:49:13.182Z,1.02
2023-04-01T12:54:56.012Z,1.20
2023-04-01T13:00:26.994Z,1.20
2023-04-01T13:06:07.066Z,1.27
2023-04-01T13:11:40.766Z,1.25
2023-04-01T13:17:31.161Z,1.30
2023-04-01T13:23:18.982Z,1.42
2023-04-01T13:29:02.817Z,1.00
2023-04-01T13:34:49.302Z,1.50
2023-04-01T13:40:46.837Z,1.65
2023-04-01T13:46:43.168Z,1.45
2023-04-01T13:52:32.529Z,1.50
2023-04-01T13:58:08.575Z,1.63
2023-04-01T14:09:46.172Z,1.02
2023-04-01T14:15:46.633Z,1.30
2023-04-01T14:21:27.328Z,1.45
2023-04-01T14:27:10.821Z,1.50
2023-04-01T14:32:38.587Z,2.08
2023-04-01T14:38:34.269Z,2.50
2023-04-01T14:44:01.854Z,2.15
2023-04-01T14:49:43.322Z,3.13
2023-04-01T14:55:54.542Z,2.92
2023-04-01T15:01:49.278Z,2.55
2023-04-01T15:07:21.813Z,2.72
2023-04-01T15:13:05.605Z,1.90
2023-04-01T15:18:33.428Z,1.80
2023-04-01T15:23:58.133Z,2.78
2023-04-01T15:29:19.914Z,2.23
2023-04-01T15:35:02.670Z,2.65
2023-04-01T15:40:25.174Z,3.35
2023-04-01T15:46:24.449Z,1.80
2023-04-01T15:52:09.135Z,1.95
2023-04-01T15:57:40.601Z,1.70
2023-04-01T16:03:18.090Z,1.90
2023-04-01T16:09:22.036Z,2.10
2023-04-01T16:15:00.382Z,1.80
2023-04-01T16:20:25.662Z,1.50
2023-04-01T16:25:59.065Z,1.40
2023-04-01T16:31:37.171Z,1.40
2023-04-01T16:37:30.081Z,1.50
2023-04-01T16:43:06.118Z,1.42
2023-04-01T16:54:20.093Z,1.60
2023-04-01T16:59:54.376Z,1.50
2023-04-01T17:05:16.256Z,1.70
2023-04-01T17:11:02.530Z,2.22
2023-04-01T17:16:39.564Z,1.77
2023-04-01T17:22:13.342Z,1.85
2023-04-01T17:27:59.393Z,2.00
2023-04-01T17:33:41.572Z,1.55
2023-04-01T17:39:15.162Z,1.80
2023-04-01T17:44:42.613Z,2.10
2023-04-01T17:50:19.500Z,2.42
2023-04-01T17:56:08.300Z,2.00
2023-04-01T18:01:39.485Z,3.22
2023-04-01T18:07:20.462Z,2.03
2023-04-01T18:13:01.440Z,2.28
2023-04-01T18:18:31.874Z,2.30
2023-04-01T18:24:02.789Z,2.63
2023-04-01T18:29:29.455Z,2.70
2023-04-01T18:35:20.912Z,2.40
2023-04-01T18:41:07.451Z,3.42
2023-04-01T18:52:35.972Z,3.08
2023-04-01T18:58:34.455Z,2.88
2023-04-01T19:04:20.884Z,3.42
2023-04-01T19:15:36.737Z,3.30
2023-04-01T19:21:40.799Z,2.90
2023-04-01T19:27:19.458Z,2.65
2023-04-01T19:32:47.032Z,2.50
2023-04-01T19:38:27.293Z,3.03
2023-04-01T19:44:01.002Z,2.72
2023-04-01T19:49:28.335Z,2.97
2023-04-01T19:55:02.560Z,2.53
2023-04-01T20:00:40.701Z,2.35
2023-04-01T20:06:18.137Z,2.05
2023-04-01T20:12:15.188Z,2.00
2023-04-01T20:23:46.374Z,1.63
2023-04-01T20:29:37.788Z,1.55
2023-04-01T20:35:14.608Z,1.27
2023-04-01T20:40:48.160Z,1.65
2023-04-01T20:46:19.122Z,1.45
2023-04-01T20:52:04.415Z,1.75
2023-04-01T20:57:52.704Z,1.48
2023-04-01T21:03:21.369Z,1.60
2023-04-01T21:09:16.950Z,1.45
2023-04-01T21:15:00.124Z,1.23
2023-04-01T21:20:48.478Z,1.45
2023-04-01T21:26:36.444Z,1.83
2023-04-01T21:32:27.567Z,1.50
2023-04-01T21:38:26.998Z,1.27
2023-04-01T21:44:00.573Z,1.10
2023-04-01T21:49:25.674Z,1.30
2023-04-01T21:55:23.975Z,1.27
2023-04-01T22:01:06.837Z,1.40
2023-04-01T22:06:31.445Z,1.20
2023-04-01T22:12:08.304Z,1.00
2023-04-01T22:17:37.987Z,1.75
2023-04-01T22:23:44.680Z,1.20
2023-04-01T22:29:07.080Z,1.33
2023-04-01T22:34:57.051Z,1.13
2023-04-01T22:40:27.448Z,0.90
2023-04-01T22:46:11.805Z,1.02
2023-04-01T22:51:46.212Z,1.17
2023-04-01T22:57:45.834Z,1.20
2023-04-01T23:03:30.178Z,0.88
2023-04-01T23:09:02.432Z,0.77
2023-04-01T23:14:27.959Z,0.80
2023-04-01T23:25:26.480Z,1.13
2023-04-01T23:30:50.580Z,0.60
2023-04-01T23:36:15.624Z,0.80
2023-04-01T23:41:37.532Z,0.70
2023-04-01T23:47:01.676Z,0.60
2023-04-01T23:52:36.137Z,0.63
2023-04-01T23:58:24.292Z,0.85
